createdAt,value
2023-10-02T00:00:10.512Z,12.50
2023-10-02T00:05:32.218Z,11.43
2023-10-02T00:10:53.936Z,11.45
2023-10-02T00:16:15.724Z,10.90
2023-10-02T00:21:37.447Z,11.98
2023-10-02T00:26:59.936Z,12.23
2023-10-02T00:32:21.751Z,10.02
2023-10-02T00:37:44.815Z,10.52
2023-10-02T00:43:06.682Z,9.90
2023-10-02T00:48:29.918Z,9.52
2023-10-02T00:53:52.144Z,12.80
2023-10-02T00:59:13.957Z,12.82
2023-10-02T01:04:35.845Z,11.40
2023-10-02T01:09:57.679Z,13.20
2023-10-02T01:15:22.625Z,13.15
2023-10-02T01:20:50.394Z,10.02
2023-10-02T01:26:12.259Z,9.43
2023-10-02T01:31:34.984Z,13.07
2023-10-02T01:36:56.776Z,17.50
2023-10-02T01:42:18.552Z,33.22
2023-10-02T01:47:40.380Z,22.67
2023-10-02T01:53:05.390Z,27.77
2023-10-02T01:58:29.011Z,25.57
2023-10-02T02:03:52.014Z,20.90
2023-10-02T02:09:13.872Z,24.20
2023-10-02T02:14:39.980Z,18.42
2023-10-02T02:20:01.792Z,15.97
2023-10-02T02:25:23.557Z,16.70
2023-10-02T02:30:45.267Z,17.55
2023-10-02T02:36:07.366Z,17.50
2023-10-02T02:41:29.219Z,15.77
2023-10-02T02:46:50.952Z,17.80
2023-10-02T02:52:12.662Z,18.05
2023-10-02T02:57:35.556Z,14.63
2023-10-02T03:03:00.849Z,13.63
2023-10-02T03:08:22.621Z,14.55
2023-10-02T03:13:44.407Z,19.42
2023-10-02T03:19:06.238Z,18.15
2023-10-02T03:24:27.955Z,14.05
2023-10-02T03:29:49.676Z,17.70
2023-10-02T03:35:11.516Z,11.65
2023-10-02T03:40:33.288Z,11.27
2023-10-02T03:45:59.675Z,14.18
2023-10-02T03:51:21.415Z,13.13
2023-10-02T03:56:43.108Z,13.90
2023-10-02T04:02:05.266Z,14.90
2023-10-02T04:07:27.011Z,11.35
2023-10-02T04:12:48.734Z,14.57
2023-10-02T04:18:10.429Z,15.88
2023-10-02T04:23:32.140Z,13.07
2023-10-02T04:28:55.807Z,15.20
2023-10-02T04:34:17.706Z,11.88
2023-10-02T04:39:39.477Z,15.65
2023-10-02T04:45:01.235Z,14.15
2023-10-02T04:50:23.122Z,18.52
2023-10-02T04:55:45.488Z,11.73
2023-10-02T05:01:07.675Z,13.35
2023-10-02T05:06:30.196Z,11.93
2023-10-02T05:11:53.077Z,12.60
2023-10-02T05:17:15.240Z,14.13
2023-10-02T05:22:37.107Z,14.02
2023-10-02T05:27:58.851Z,15.63
2023-10-02T05:33:20.581Z,14.82
2023-10-02T05:38:42.285Z,13.05
2023-10-02T05:44:04.262Z,16.05
2023-10-02T05:49:26.062Z,16.60
2023-10-02T05:54:49.337Z,19.13
2023-10-02T06:00:11.674Z,18.98
2023-10-02T06:05:33.390Z,20.48
2023-10-02T06:10:55.129Z,22.42
2023-10-02T06:16:16.874Z,20.30
2023-10-02T06:21:38.648Z,15.43
2023-10-02T06:27:00.465Z,18.20
2023-10-02T06:32:22.233Z,14.55
2023-10-02T06:37:44.042Z,13.45
2023-10-02T06:43:05.816Z,14.70
2023-10-02T06:48:27.554Z,19.15
2023-10-02T06:53:49.289Z,14.88
2023-10-02T06:59:11.051Z,14.93
2023-10-02T07:04:32.992Z,14.25
2023-10-02T07:09:57.032Z,15.88
2023-10-02T07:15:18.762Z,12.48
2023-10-02T07:20:43.684Z,15.27
2023-10-02T07:26:06.534Z,16.67
2023-10-02T07:31:28.384Z,16.58
2023-10-02T07:36:50.127Z,14.50
2023-10-02T07:42:11.975Z,12.35
2023-10-02T07:47:33.854Z,14.40
2023-10-02T07:52:55.721Z,14.02
2023-10-02T07:58:17.502Z,18.77
2023-10-02T08:03:40.558Z,17.58
2023-10-02T08:09:05.225Z,14.45
2023-10-02T08:14:26.942Z,10.15
2023-10-02T08:19:53.439Z,12.90
2023-10-02T08:25:16.028Z,17.02
2023-10-02T08:30:38.229Z,13.63
2023-10-02T08:36:01.051Z,16.00
2023-10-02T08:41:22.856Z,12.77
2023-10-02T08:46:45.207Z,12.82
2023-10-02T08:52:11.663Z,11.35
2023-10-02T08:57:58.157Z,12.68
2023-10-02T09:03:32.176Z,12.57
2023-10-02T09:08:54.664Z,13.80
2023-10-02T09:14:16.420Z,12.35
2023-10-02T09:19:38.222Z,14.68
2023-10-02T09:25:12.755Z,11.40
2023-10-02T09:30:34.459Z,13.57
2023-10-02T09:36:29.906Z,11.77
2023-10-02T09:41:39.669Z,9.43
2023-10-02T09:47:01.640Z,11.00
2023-10-02T09:52:29.624Z,11.55
2023-10-02T09:57:55.084Z,11.50
2023-10-02T10:03:22.939Z,10.97
2023-10-02T10:09:07.856Z,10.68
2023-10-02T10:14:29.525Z,12.70
2023-10-02T10:19:57.097Z,9.52
2023-10-02T10:25:21.878Z,7.45
2023-10-02T10:30:50.276Z,8.90
2023-10-02T10:36:34.766Z,5.53
2023-10-02T10:42:01.589Z,7.30
2023-10-02T10:47:38.829Z,6.63
2023-10-02T10:53:01.520Z,7.05
2023-10-02T10:58:31.257Z,6.07
2023-10-02T11:04:03.027Z,7.55
2023-10-02T11:09:24.962Z,5.70
2023-10-02T11:14:46.692Z,8.25
2023-10-02T11:20:09.058Z,6.88
2023-10-02T11:25:30.995Z,7.57
2023-10-02T11:30:52.843Z,7.63
2023-10-02T11:36:14.578Z,9.73
2023-10-02T11:41:40.320Z,5.40
2023-10-02T11:47:02.150Z,15.52
2023-10-02T11:52:24.206Z,10.45
2023-10-02T11:57:46.973Z,10.57
2023-10-02T12:03:08.804Z,8.57
2023-10-02T12:08:30.659Z,9.95
2023-10-02T12:13:53.239Z,7.82
2023-10-02T12:19:14.987Z,10.10
2023-10-02T12:24:38.247Z,7.38
2023-10-02T12:30:00.403Z,5.72
2023-10-02T12:35:22.178Z,7.75
2023-10-02T12:40:43.986Z,5.88
2023-10-02T12:46:05.733Z,6.18
2023-10-02T12:51:29.768Z,4.50
2023-10-02T12:56:51.507Z,8.70
2023-10-02T13:02:13.187Z,4.88
2023-10-02T13:07:35.006Z,7.15
2023-10-02T13:12:56.746Z,11.07
2023-10-02T13:18:18.814Z,5.28
2023-10-02T13:23:41.077Z,6.97
2023-10-02T13:29:03.047Z,7.47
2023-10-02T13:34:24.918Z,9.75
2023-10-02T13:39:46.706Z,5.85
2023-10-02T13:45:08.926Z,5.97
2023-10-02T13:50:33.293Z,6.15
2023-10-02T13:55:55.163Z,7.95
2023-10-02T14:01:21.769Z,6.25
2023-10-02T14:06:43.607Z,7.53
2023-10-02T14:12:05.674Z,8.80
2023-10-02T14:17:27.497Z,7.80
2023-10-02T14:22:49.301Z,7.82
2023-10-02T14:28:11.002Z,8.23
2023-10-02T14:33:35.254Z,8.27
2023-10-02T14:38:57.465Z,8.95
2023-10-02T14:44:19.273Z,7.53
2023-10-02T14:49:41.181Z,4.90
2023-10-02T14:55:02.940Z,7.57
2023-10-02T15:00:25.839Z,6.75
2023-10-02T15:05:47.581Z,7.70
2023-10-02T15:11:09.447Z,6.30
2023-10-02T15:16:31.274Z,8.00
2023-10-02T15:21:53.034Z,6.95
2023-10-02T15:27:14.768Z,4.80
2023-10-02T15:32:36.512Z,6.85
2023-10-02T15:37:58.973Z,5.45
2023-10-02T15:43:20.734Z,10.38
2023-10-02T15:48:42.453Z,5.97
2023-10-02T15:54:04.411Z,6.57
2023-10-02T15:59:26.151Z,8.95
2023-10-02T16:04:51.822Z,7.43
2023-10-02T16:10:14.366Z,8.67
2023-10-02T16:15:36.546Z,5.70
2023-10-02T16:20:58.638Z,7.22
2023-10-02T16:26:24.110Z,5.47
2023-10-02T16:31:45.847Z,7.00
2023-10-02T16:37:07.664Z,4.63
2023-10-02T16:42:29.441Z,8.85
2023-10-02T16:47:51.249Z,8.70
2023-10-02T16:53:13.003Z,7.38
2023-10-02T16:58:35.432Z,5.18
2023-10-02T17:03:57.309Z,7.93
2023-10-02T17:09:19.319Z,8.65
2023-10-02T17:14:41.048Z,8.60
2023-10-02T17:20:02.919Z,5.45
2023-10-02T17:25:24.812Z,8.85
2023-10-02T17:30:46.515Z,5.32
2023-10-02T17:36:08.243Z,8.32
2023-10-02T17:41:30.023Z,5.93
2023-10-02T17:46:51.799Z,6.60
2023-10-02T17:52:13.557Z,6.65
2023-10-02T17:57:35.431Z,7.63
2023-10-02T18:02:57.488Z,8.35
2023-10-02T18:08:19.406Z,6.97
2023-10-02T18:13:41.160Z,9.27
2023-10-02T18:19:03.054Z,9.15
2023-10-02T18:24:25.057Z,9.05
2023-10-02T18:29:46.896Z,8.60
2023-10-02T18:35:09.307Z,9.48
2023-10-02T18:40:31.092Z,8.45
2023-10-02T18:45:52.860Z,10.32
2023-10-02T18:51:18.198Z,14.32
2023-10-02T18:56:39.996Z,9.00
2023-10-02T19:02:01.786Z,9.00
2023-10-02T19:07:23.533Z,9.18
2023-10-02T19:12:45.230Z,8.77
2023-10-02T19:18:07.210Z,11.52
2023-10-02T19:23:29.043Z,10.73
2023-10-02T19:28:51.170Z,15.02
2023-10-02T19:34:13.077Z,8.20
2023-10-02T19:39:34.788Z,10.63
2023-10-02T19:44:56.486Z,9.00
2023-10-02T19:50:18.339Z,9.00
2023-10-02T19:55:40.319Z,12.95
2023-10-02T20:01:02.904Z,11.00
2023-10-02T20:06:25.029Z,11.77
2023-10-02T20:11:46.819Z,9.07
2023-10-02T20:17:08.589Z,13.25
2023-10-02T20:22:30.341Z,10.48
2023-10-02T20:27:52.483Z,8.40
2023-10-02T20:33:14.282Z,9.55
2023-10-02T20:38:36.357Z,12.52
2023-10-02T20:43:58.126Z,10.32
2023-10-02T20:49:20.431Z,10.77
2023-10-02T20:54:42.460Z,11.95
2023-10-02T21:00:04.658Z,9.45
2023-10-02T21:05:27.864Z,10.07
2023-10-02T21:10:52.574Z,12.02
2023-10-02T21:16:15.533Z,9.93
2023-10-02T21:21:37.386Z,10.45
2023-10-02T21:26:59.161Z,10.95
2023-10-02T21:32:20.907Z,8.85
2023-10-02T21:37:43.057Z,12.68
2023-10-02T21:43:04.879Z,10.35
2023-10-02T21:48:26.618Z,9.32
2023-10-02T21:53:48.371Z,9.93
2023-10-02T21:59:10.143Z,8.73
2023-10-02T22:04:31.859Z,10.43
2023-10-02T22:09:53.591Z,10.55
2023-10-02T22:15:15.353Z,11.70
2023-10-02T22:20:41.772Z,7.57
2023-10-02T22:26:03.525Z,14.07
2023-10-02T22:31:25.337Z,8.68
2023-10-02T22:36:47.057Z,11.38
2023-10-02T22:42:08.797Z,9.18
2023-10-02T22:47:30.634Z,11.45
2023-10-02T22:52:52.416Z,9.65
2023-10-02T22:58:14.134Z,11.70
2023-10-02T23:03:37.235Z,8.07
2023-10-02T23:08:59.071Z,11.40
2023-10-02T23:14:20.909Z,9.25
2023-10-02T23:19:42.676Z,9.05
2023-10-02T23:25:04.768Z,7.95
2023-10-02T23:30:26.520Z,10.77
2023-10-02T23:35:48.354Z,7.85
2023-10-02T23:41:10.390Z,10.13
2023-10-02T23:46:32.129Z,10.65
2023-10-02T23:51:53.917Z,11.07
2023-10-02T23:57:15.638Z,11.10
